Time;durP1;ratioP1;P1;durP2;ratioP2;P2;SDS_P1;SDS_P2;PMS_P1;PMS_P2;Temp;Humidity;BMP_temperature;BMP_pressure;BME280_temperature;BME280_humidity;BME280_pressure;Samples;Min_cycle;Max_cycle;Signal;HPM_P1;HPM_P2
2022/12/09 00:01:26;;;;;;;6.82;5.47;;;;;;;;;;5041874;28;20216;-68
2022/12/09 00:03:54;;;;;;;6.80;5.60;;;;;;;;;;5041782;28;20204;-68
2022/12/09 00:06:21;;;;;;;8.18;5.38;;;;;;;;;;5041723;28;20208;-68
2022/12/09 00:08:47;;;;;;;6.00;5.05;;;;;;;;;;5041435;28;20219;-68
2022/12/09 00:11:14;;;;;;;6.35;4.53;;;;;;;;;;5041692;28;20205;-68
2022/12/09 00:13:41;;;;;;;6.13;4.53;;;;;;;;;;5041568;28;20194;-68
2022/12/09 00:16:08;;;;;;;6.07;5.15;;;;;;;;;;5041286;28;20214;-68
2022/12/09 00:18:35;;;;;;;8.57;5.35;;;;;;;;;;5041039;28;20205;-68
2022/12/09 00:21:10;;;;;;;7.00;6.00;;;;;;;;;;5041301;28;20210;-68
2022/12/09 00:23:37;;;;;;;5.30;4.78;;;;;;;;;;5041537;27;20204;-68
2022/12/09 00:26:03;;;;;;;8.65;5.90;;;;;;;;;;5041317;28;20194;-68
2022/12/09 00:28:29;;;;;;;7.15;5.03;;;;;;;;;;5040984;27;20218;-68
2022/12/09 00:31:00;;;;;;;5.53;4.65;;;;;;;;;;5040934;28;20198;-68
2022/12/09 00:33:26;;;;;;;4.78;4.43;;;;;;;;;;5041239;28;20405;-68
2022/12/09 00:35:52;;;;;;;4.45;4.07;;;;;;;;;;5040383;28;20228;-68
2022/12/09 00:38:18;;;;;;;4.90;4.43;;;;;;;;;;5040999;28;20393;-68
2022/12/09 00:40:45;;;;;;;5.93;4.40;;;;;;;;;;5041318;28;20198;-68
2022/12/09 00:43:11;;;;;;;4.70;4.30;;;;;;;;;;5041120;28;20206;-68
2022/12/09 00:45:37;;;;;;;5.00;4.60;;;;;;;;;;5041098;28;20374;-68
2022/12/09 00:48:05;;;;;;;4.45;4.05;;;;;;;;;;5041052;28;20204;-69
2022/12/09 00:50:31;;;;;;;4.72;4.10;;;;;;;;;;5041038;27;20206;-68
2022/12/09 00:52:58;;;;;;;4.95;4.45;;;;;;;;;;5040973;28;20201;-68
2022/12/09 00:55:24;;;;;;;4.60;4.22;;;;;;;;;;5040718;28;20398;-68
2022/12/09 00:57:50;;;;;;;4.72;4.38;;;;;;;;;;5040619;28;20202;-68
2022/12/09 01:00:17;;;;;;;5.07;4.13;;;;;;;;;;5040619;28;20204;-68
2022/12/09 01:02:43;;;;;;;4.47;4.15;;;;;;;;;;5040991;28;20264;-68
2022/12/09 01:05:11;;;;;;;5.55;3.83;;;;;;;;;;5041099;28;20204;-68
2022/12/09 01:07:37;;;;;;;4.93;4.53;;;;;;;;;;5040761;28;20212;-68
2022/12/09 01:10:04;;;;;;;5.43;4.47;;;;;;;;;;5040811;28;20248;-68
2022/12/09 01:12:30;;;;;;;4.80;4.32;;;;;;;;;;5040794;27;20206;-68
2022/12/09 01:14:57;;;;;;;5.45;4.95;;;;;;;;;;5041009;28;20204;-68
2022/12/09 01:17:23;;;;;;;5.95;5.13;;;;;;;;;;5040657;28;20204;-68
2022/12/09 01:19:49;;;;;;;5.55;5.00;;;;;;;;;;5040298;28;20217;-68
2022/12/09 01:22:17;;;;;;;4.88;4.47;;;;;;;;;;5040383;28;20204;-68
2022/12/09 01:24:43;;;;;;;4.97;4.57;;;;;;;;;;5040413;28;20204;-68
2022/12/09 01:27:10;;;;;;;4.75;4.28;;;;;;;;;;5040348;28;20194;-68
2022/12/09 01:29:36;;;;;;;4.72;4.32;;;;;;;;;;5040170;28;20206;-68
2022/12/09 01:32:02;;;;;;;4.75;4.35;;;;;;;;;;5040576;28;20382;-68
2022/12/09 01:34:29;;;;;;;5.10;4.70;;;;;;;;;;5040454;28;20209;-68
2022/12/09 01:36:55;;;;;;;6.70;4.82;;;;;;;;;;5040265;28;20214;-68
2022/12/09 01:39:23;;;;;;;7.78;4.55;;;;;;;;;;5039950;28;20206;-68
2022/12/09 01:41:50;;;;;;;7.03;5.55;;;;;;;;;;5040205;28;20204;-68
2022/12/09 01:44:17;;;;;;;8.73;6.63;;;;;;;;;;5040378;27;20198;-69
2022/12/09 01:46:44;;;;;;;7.70;5.57;;;;;;;;;;5040195;28;20194;-68
2022/12/09 01:49:12;;;;;;;8.75;5.55;;;;;;;;;;5040026;28;20198;-68
2022/12/09 01:51:39;;;;;;;7.60;6.15;;;;;;;;;;5040294;28;20197;-68
2022/12/09 01:54:06;;;;;;;6.75;6.05;;;;;;;;;;5040410;28;20198;-68
2022/12/09 01:56:34;;;;;;;11.02;6.72;;;;;;;;;;5040398;28;20222;-68
2022/12/09 01:59:02;;;;;;;10.50;6.53;;;;;;;;;;5039742;28;20197;-68
2022/12/09 02:01:29;;;;;;;11.50;6.75;;;;;;;;;;5039862;28;20204;-68
2022/12/09 02:03:55;;;;;;;10.82;6.15;;;;;;;;;;5039977;28;20204;-68
2022/12/09 02:06:21;;;;;;;8.70;6.78;;;;;;;;;;5039731;28;20202;-68
2022/12/09 02:08:49;;;;;;;9.93;6.78;;;;;;;;;;5039586;28;20206;-68
2022/12/09 02:11:18;;;;;;;8.93;6.25;;;;;;;;;;5039517;28;20210;-68
2022/12/09 02:13:50;;;;;;;11.27;6.63;;;;;;;;;;5039715;28;20204;-68
2022/12/09 02:16:19;;;;;;;8.48;6.30;;;;;;;;;;5039833;28;20222;-68
2022/12/09 02:18:47;;;;;;;10.77;7.00;;;;;;;;;;5039418;28;20206;-68
2022/12/09 02:21:17;;;;;;;12.23;6.72;;;;;;;;;;5039480;28;20213;-68
2022/12/09 02:23:46;;;;;;;8.68;6.30;;;;;;;;;;5039314;28;20198;-68
2022/12/09 02:26:16;;;;;;;11.68;6.28;;;;;;;;;;5039742;28;20200;-68
2022/12/09 02:28:55;;;;;;;9.40;6.60;;;;;;;;;;5039197;28;20224;-68
2022/12/09 02:31:28;;;;;;;7.22;6.20;;;;;;;;;;5039776;28;20198;-68
2022/12/09 02:34:06;;;;;;;10.27;6.30;;;;;;;;;;5039608;28;20198;-68
2022/12/09 02:36:36;;;;;;;9.13;6.60;;;;;;;;;;5039636;28;20232;-68
2022/12/09 02:39:02;;;;;;;8.00;6.07;;;;;;;;;;5039426;28;20389;-68
2022/12/09 02:41:30;;;;;;;8.57;6.40;;;;;;;;;;5039398;28;20205;-68
2022/12/09 02:43:58;;;;;;;7.53;6.00;;;;;;;;;;5038682;28;20198;-68
2022/12/09 02:46:25;;;;;;;9.02;6.60;;;;;;;;;;5039496;28;20265;-68
2022/12/09 02:48:53;;;;;;;8.88;6.18;;;;;;;;;;5038990;28;20197;-68
2022/12/09 02:51:22;;;;;;;11.52;7.70;;;;;;;;;;5039316;28;20211;-68
2022/12/09 02:53:50;;;;;;;10.90;7.35;;;;;;;;;;5039215;28;20505;-68
2022/12/09 02:56:17;;;;;;;11.13;7.38;;;;;;;;;;5038882;28;20521;-68
2022/12/09 02:58:44;;;;;;;10.70;6.88;;;;;;;;;;5041437;28;20204;-68
2022/12/09 03:01:19;;;;;;;11.70;6.95;;;;;;;;;;5042842;28;20198;-68
2022/12/09 03:03:46;;;;;;;8.32;6.45;;;;;;;;;;5042715;28;20453;-68
2022/12/09 03:06:13;;;;;;;7.85;6.85;;;;;;;;;;5042418;28;20194;-68
2022/12/09 03:08:45;;;;;;;8.07;6.47;;;;;;;;;;5042196;28;20389;-68
2022/12/09 03:11:13;;;;;;;12.77;6.90;;;;;;;;;;5042454;28;20212;-68
2022/12/09 03:13:44;;;;;;;8.10;6.72;;;;;;;;;;5042647;28;20501;-68
2022/12/09 03:16:14;;;;;;;6.22;5.60;;;;;;;;;;5042309;28;20404;-68
2022/12/09 03:18:43;;;;;;;11.32;6.53;;;;;;;;;;5042004;28;20197;-68
2022/12/09 03:21:11;;;;;;;10.55;6.78;;;;;;;;;;5042122;28;20206;-68
2022/12/09 03:23:38;;;;;;;7.95;6.25;;;;;;;;;;5042346;28;20228;-68
2022/12/09 03:26:06;;;;;;;11.13;5.72;;;;;;;;;;5042423;28;20298;-68
2022/12/09 03:28:35;;;;;;;8.65;6.75;;;;;;;;;;5042147;28;20486;-68
2022/12/09 03:31:04;;;;;;;8.15;5.90;;;;;;;;;;5042333;27;20220;-68
2022/12/09 03:33:31;;;;;;;7.75;6.10;;;;;;;;;;5041970;28;20212;-68
2022/12/09 03:35:59;;;;;;;9.32;6.50;;;;;;;;;;5041894;28;20227;-68
2022/12/09 03:38:28;;;;;;;9.60;6.25;;;;;;;;;;5042006;28;20198;-68
2022/12/09 03:40:57;;;;;;;9.07;5.95;;;;;;;;;;5041956;28;20502;-68
2022/12/09 03:43:27;;;;;;;8.65;6.35;;;;;;;;;;5042240;28;20198;-68
2022/12/09 03:45:53;;;;;;;8.30;6.05;;;;;;;;;;5041682;28;20198;-68
2022/12/09 03:48:20;;;;;;;8.90;6.70;;;;;;;;;;5042055;28;20535;-68
2022/12/09 03:50:49;;;;;;;5.95;5.35;;;;;;;;;;5042124;28;20197;-68
2022/12/09 03:53:17;;;;;;;6.85;5.88;;;;;;;;;;5041486;28;20214;-68
2022/12/09 03:55:46;;;;;;;7.13;5.32;;;;;;;;;;5041966;28;20197;-68
2022/12/09 03:58:13;;;;;;;6.00;5.50;;;;;;;;;;5041889;28;20198;-68
2022/12/09 04:00:41;;;;;;;6.47;5.82;;;;;;;;;;5041538;28;20201;-68
2022/12/09 04:03:07;;;;;;;8.10;5.82;;;;;;;;;;5041705;28;20206;-68
2022/12/09 04:05:33;;;;;;;6.85;5.75;;;;;;;;;;5041569;28;20503;-68
2022/12/09 04:08:00;;;;;;;6.63;5.93;;;;;;;;;;5041771;28;20194;-68
2022/12/09 04:10:26;;;;;;;6.60;5.85;;;;;;;;;;5040428;28;20198;-68
2022/12/09 04:12:52;;;;;;;6.80;6.10;;;;;;;;;;5041554;28;20208;-68
2022/12/09 04:15:19;;;;;;;7.55;5.75;;;;;;;;;;5042118;28;20198;-68
2022/12/09 04:17:46;;;;;;;9.10;6.43;;;;;;;;;;5041251;28;20394;-68
2022/12/09 04:20:13;;;;;;;9.73;6.38;;;;;;;;;;5041210;28;20210;-68
2022/12/09 04:22:39;;;;;;;10.38;6.40;;;;;;;;;;5041692;27;20206;-68
2022/12/09 04:25:06;;;;;;;7.97;6.05;;;;;;;;;;5041395;28;20198;-68
2022/12/09 04:27:32;;;;;;;8.68;6.32;;;;;;;;;;5040987;28;20214;-68
2022/12/09 04:29:59;;;;;;;7.57;5.80;;;;;;;;;;5041075;28;20198;-68
2022/12/09 04:32:25;;;;;;;7.07;6.30;;;;;;;;;;5041508;28;20208;-68
2022/12/09 04:34:53;;;;;;;6.25;5.60;;;;;;;;;;5040958;28;20385;-68
2022/12/09 04:37:19;;;;;;;9.48;6.50;;;;;;;;;;5040772;28;20221;-68
2022/12/09 04:39:45;;;;;;;7.57;6.32;;;;;;;;;;5040915;28;20198;-68
2022/12/09 04:42:12;;;;;;;11.30;7.65;;;;;;;;;;5041661;28;20198;-68
2022/12/09 04:44:38;;;;;;;9.18;7.10;;;;;;;;;;5040900;28;20198;-68
2022/12/09 04:47:04;;;;;;;8.15;6.68;;;;;;;;;;5041320;28;20194;-68
2022/12/09 04:49:31;;;;;;;10.85;7.20;;;;;;;;;;5040946;28;20198;-68
2022/12/09 04:51:58;;;;;;;8.98;6.65;;;;;;;;;;5041220;28;20268;-68
2022/12/09 04:54:24;;;;;;;9.20;6.65;;;;;;;;;;5041058;28;20198;-68
2022/12/09 04:56:51;;;;;;;10.55;6.95;;;;;;;;;;5040696;28;20240;-68
2022/12/09 04:59:17;;;;;;;8.75;7.07;;;;;;;;;;5040256;28;20353;-68
2022/12/09 05:01:43;;;;;;;9.43;6.57;;;;;;;;;;5040854;28;20205;-68
2022/12/09 05:04:10;;;;;;;13.75;7.40;;;;;;;;;;5040849;28;20204;-68
2022/12/09 05:06:36;;;;;;;10.73;7.25;;;;;;;;;;5040720;28;20194;-68
2022/12/09 05:09:04;;;;;;;11.43;7.90;;;;;;;;;;5040424;28;20539;-68
2022/12/09 05:11:30;;;;;;;9.55;7.00;;;;;;;;;;5040603;28;20208;-68
2022/12/09 05:13:56;;;;;;;10.38;7.22;;;;;;;;;;5040675;28;20219;-68
2022/12/09 05:16:22;;;;;;;16.10;7.93;;;;;;;;;;5040392;28;20397;-68
2022/12/09 05:18:49;;;;;;;11.45;7.93;;;;;;;;;;5040594;28;20200;-68
2022/12/09 05:21:16;;;;;;;10.60;7.15;;;;;;;;;;5040026;28;20212;-68
2022/12/09 05:23:43;;;;;;;16.48;8.02;;;;;;;;;;5040501;28;20210;-68
2022/12/09 05:26:11;;;;;;;11.65;7.53;;;;;;;;;;5040501;28;20201;-68
2022/12/09 05:28:38;;;;;;;9.85;7.40;;;;;;;;;;5040360;28;20417;-68
2022/12/09 05:31:05;;;;;;;8.45;7.07;;;;;;;;;;5040385;28;20204;-68
2022/12/09 05:33:32;;;;;;;10.73;7.18;;;;;;;;;;5040584;28;20268;-68
2022/12/09 05:35:58;;;;;;;12.23;8.18;;;;;;;;;;5040197;28;20552;-68
2022/12/09 05:38:25;;;;;;;10.38;7.50;;;;;;;;;;5040293;28;20228;-68
2022/12/09 05:40:51;;;;;;;9.52;6.97;;;;;;;;;;5040066;28;20212;-68
2022/12/09 05:43:19;;;;;;;13.40;7.80;;;;;;;;;;5040503;28;20198;-68
2022/12/09 05:45:45;;;;;;;12.13;7.38;;;;;;;;;;5040412;28;20198;-68
2022/12/09 05:48:12;;;;;;;8.23;7.15;;;;;;;;;;5040176;28;20509;-68
2022/12/09 05:50:38;;;;;;;12.05;7.63;;;;;;;;;;5039969;28;20212;-68
2022/12/09 05:53:04;;;;;;;9.32;7.28;;;;;;;;;;5040580;28;20220;-68
2022/12/09 05:55:30;;;;;;;7.88;7.07;;;;;;;;;;5039810;28;20527;-68
2022/12/09 05:57:57;;;;;;;8.90;7.60;;;;;;;;;;5039847;28;20226;-68
2022/12/09 06:00:25;;;;;;;13.18;7.60;;;;;;;;;;5040337;28;20221;-68
2022/12/09 06:02:51;;;;;;;9.70;7.18;;;;;;;;;;5040314;28;20269;-68
2022/12/09 06:05:17;;;;;;;10.98;7.45;;;;;;;;;;5039701;28;20531;-68
2022/12/09 06:07:44;;;;;;;9.77;7.55;;;;;;;;;;5039167;28;20205;-68
2022/12/09 06:10:10;;;;;;;11.68;7.35;;;;;;;;;;5039877;28;20388;-68
2022/12/09 06:12:36;;;;;;;10.10;7.32;;;;;;;;;;5039377;28;20300;-68
2022/12/09 06:15:03;;;;;;;8.38;7.47;;;;;;;;;;5039438;28;20199;-68
2022/12/09 06:17:30;;;;;;;10.90;7.80;;;;;;;;;;5039403;28;20240;-68
2022/12/09 06:19:57;;;;;;;10.65;7.32;;;;;;;;;;5038918;28;20212;-68
2022/12/09 06:22:23;;;;;;;10.48;7.93;;;;;;;;;;5039847;28;20208;-68
2022/12/09 06:24:49;;;;;;;11.60;7.88;;;;;;;;;;5038952;28;20213;-68
2022/12/09 06:27:16;;;;;;;10.65;7.50;;;;;;;;;;5038938;28;20473;-68
2022/12/09 06:29:42;;;;;;;10.98;8.00;;;;;;;;;;5038909;28;20212;-68
2022/12/09 06:32:08;;;;;;;14.43;7.63;;;;;;;;;;5037869;28;20208;-68
2022/12/09 06:34:36;;;;;;;12.32;7.70;;;;;;;;;;5039029;28;20194;-68
2022/12/09 06:37:02;;;;;;;10.60;7.80;;;;;;;;;;5039108;28;20228;-68
2022/12/09 06:39:28;;;;;;;14.68;8.27;;;;;;;;;;5038792;28;20220;-68
2022/12/09 06:41:55;;;;;;;16.35;8.63;;;;;;;;;;5039014;28;20379;-71
2022/12/09 06:44:21;;;;;;;14.00;8.27;;;;;;;;;;5038988;28;20198;-72
2022/12/09 06:46:47;;;;;;;20.40;9.10;;;;;;;;;;5039240;28;20201;-70
2022/12/09 06:49:13;;;;;;;16.77;8.85;;;;;;;;;;5038996;28;20202;-70
2022/12/09 06:51:41;;;;;;;19.33;9.02;;;;;;;;;;5038819;28;20198;-70
2022/12/09 06:54:08;;;;;;;12.85;8.57;;;;;;;;;;5038984;28;20201;-70
2022/12/09 06:56:34;;;;;;;15.52;8.75;;;;;;;;;;5038733;28;20234;-71
2022/12/09 06:59:05;;;;;;;13.40;8.88;;;;;;;;;;5038851;28;20197;-71
2022/12/09 07:01:31;;;;;;;12.25;8.10;;;;;;;;;;5038798;28;20197;-71
2022/12/09 07:03:57;;;;;;;13.75;8.35;;;;;;;;;;5038899;28;20204;-71
2022/12/09 07:06:26;;;;;;;17.80;9.98;;;;;;;;;;5038692;28;20509;-71
2022/12/09 07:08:54;;;;;;;15.15;10.80;;;;;;;;;;5038626;28;20189;-71
2022/12/09 07:11:20;;;;;;;19.17;10.50;;;;;;;;;;5038877;28;20513;-71
2022/12/09 07:13:47;;;;;;;14.95;10.27;;;;;;;;;;5039065;28;20213;-71
2022/12/09 07:16:13;;;;;;;19.27;10.75;;;;;;;;;;5038828;28;20198;-71
2022/12/09 07:18:39;;;;;;;16.70;9.77;;;;;;;;;;5038393;28;20224;-71
2022/12/09 07:21:06;;;;;;;12.20;8.60;;;;;;;;;;5038623;28;20240;-71
2022/12/09 07:23:32;;;;;;;12.70;8.80;;;;;;;;;;5039266;28;20505;-71
2022/12/09 07:26:01;;;;;;;15.85;9.57;;;;;;;;;;5038622;28;20225;-71
2022/12/09 07:28:28;;;;;;;15.45;10.70;;;;;;;;;;5038588;28;20395;-71
2022/12/09 07:30:54;;;;;;;17.75;9.93;;;;;;;;;;5038185;28;20198;-71
2022/12/09 07:33:20;;;;;;;17.33;9.63;;;;;;;;;;5037736;28;20204;-71
2022/12/09 07:35:46;;;;;;;15.63;10.10;;;;;;;;;;5038472;28;20212;-71
2022/12/09 07:38:13;;;;;;;19.85;11.07;;;;;;;;;;5038931;28;20218;-71
2022/12/09 07:40:39;;;;;;;17.25;9.68;;;;;;;;;;5038789;28;20211;-71
2022/12/09 07:43:07;;;;;;;14.80;10.18;;;;;;;;;;5038685;28;20497;-71
2022/12/09 07:45:33;;;;;;;18.17;10.23;;;;;;;;;;5041766;28;20202;-71
2022/12/09 07:47:59;;;;;;;12.98;10.13;;;;;;;;;;5041388;28;20190;-71
2022/12/09 07:50:26;;;;;;;14.18;10.30;;;;;;;;;;5041717;28;20205;-71
2022/12/09 07:52:52;;;;;;;15.43;10.00;;;;;;;;;;5042098;28;20198;-71
2022/12/09 07:55:18;;;;;;;15.65;10.38;;;;;;;;;;5042029;28;20205;-71
2022/12/09 07:57:45;;;;;;;15.50;10.00;;;;;;;;;;5041631;28;20419;-71
2022/12/09 08:00:13;;;;;;;13.27;9.32;;;;;;;;;;5041526;28;20213;-71
2022/12/09 08:02:39;;;;;;;17.45;10.93;;;;;;;;;;5041569;28;20216;-71
2022/12/09 08:05:06;;;;;;;35.88;17.88;;;;;;;;;;5041808;28;20206;-71
2022/12/09 08:07:32;;;;;;;30.38;14.80;;;;;;;;;;5041532;28;20359;-71
2022/12/09 08:09:59;;;;;;;20.42;11.73;;;;;;;;;;5041265;28;20206;-71
2022/12/09 08:12:25;;;;;;;22.95;13.18;;;;;;;;;;5041655;28;20198;-71
2022/12/09 08:14:51;;;;;;;22.05;12.48;;;;;;;;;;5041529;28;20204;-70
2022/12/09 08:17:19;;;;;;;24.00;12.20;;;;;;;;;;5041825;28;20575;-71
2022/12/09 08:19:46;;;;;;;20.40;11.63;;;;;;;;;;5041019;28;20219;-71
2022/12/09 08:22:12;;;;;;;25.52;12.48;;;;;;;;;;5041544;28;20198;-71
2022/12/09 08:24:38;;;;;;;23.58;12.18;;;;;;;;;;5041598;28;20198;-71
2022/12/09 08:27:04;;;;;;;28.98;12.43;;;;;;;;;;5041363;28;20190;-71
2022/12/09 08:29:31;;;;;;;21.40;12.10;;;;;;;;;;5041031;28;20198;-71
2022/12/09 08:31:57;;;;;;;22.48;12.30;;;;;;;;;;5040497;28;20204;-71
2022/12/09 08:34:25;;;;;;;22.45;11.98;;;;;;;;;;5040540;28;20405;-71
2022/12/09 08:36:51;;;;;;;24.00;12.68;;;;;;;;;;5040989;28;20198;-71
2022/12/09 08:39:17;;;;;;;25.23;13.32;;;;;;;;;;5041143;28;20302;-71
2022/12/09 08:41:44;;;;;;;28.08;12.80;;;;;;;;;;5040913;28;20198;-71
2022/12/09 08:44:11;;;;;;;23.20;11.77;;;;;;;;;;5041175;28;20198;-71
2022/12/09 08:46:38;;;;;;;22.80;11.70;;;;;;;;;;5041096;28;20274;-71
2022/12/09 08:49:05;;;;;;;23.42;12.10;;;;;;;;;;5041007;28;20364;-71
2022/12/09 08:51:32;;;;;;;19.77;11.88;;;;;;;;;;5040935;28;20391;-71
2022/12/09 08:53:59;;;;;;;27.00;13.05;;;;;;;;;;5041033;28;20204;-71
2022/12/09 08:56:26;;;;;;;25.40;12.15;;;;;;;;;;5040086;28;20198;-71
2022/12/09 08:58:53;;;;;;;25.23;12.35;;;;;;;;;;5040627;28;20549;-71
2022/12/09 09:01:21;;;;;;;20.15;12.15;;;;;;;;;;5041238;28;20198;-71
2022/12/09 09:03:48;;;;;;;20.30;12.10;;;;;;;;;;5040788;28;20238;-71
2022/12/09 09:06:14;;;;;;;22.60;11.93;;;;;;;;;;5040636;28;20269;-71
2022/12/09 09:08:42;;;;;;;22.38;11.80;;;;;;;;;;5040289;28;20520;-71
2022/12/09 09:11:10;;;;;;;16.48;11.85;;;;;;;;;;5040525;28;20373;-71
2022/12/09 09:13:36;;;;;;;23.67;11.80;;;;;;;;;;5040417;28;20197;-71
2022/12/09 09:16:02;;;;;;;28.55;17.35;;;;;;;;;;5040454;28;20259;-71
2022/12/09 09:18:29;;;;;;;27.95;15.50;;;;;;;;;;5040012;28;20237;-71
2022/12/09 09:20:57;;;;;;;20.40;13.38;;;;;;;;;;5040343;28;20205;-71
2022/12/09 09:23:24;;;;;;;28.05;13.07;;;;;;;;;;5040221;28;20473;-71
2022/12/09 09:25:51;;;;;;;20.85;13.13;;;;;;;;;;5040158;28;20198;-71
2022/12/09 09:28:17;;;;;;;77.30;42.15;;;;;;;;;;5039925;28;20225;-71
2022/12/09 09:30:45;;;;;;;68.22;33.88;;;;;;;;;;5039787;28;20198;-71
2022/12/09 09:33:11;;;;;;;63.25;30.73;;;;;;;;;;5040003;28;20216;-71
2022/12/09 09:35:38;;;;;;;34.40;21.48;;;;;;;;;;5039848;28;20198;-71
2022/12/09 09:38:04;;;;;;;30.23;17.25;;;;;;;;;;5039596;28;20420;-71
2022/12/09 09:40:32;;;;;;;28.75;15.40;;;;;;;;;;5039907;28;20206;-71
2022/12/09 09:43:00;;;;;;;24.65;14.45;;;;;;;;;;5039930;28;20220;-71
2022/12/09 09:45:26;;;;;;;19.88;14.23;;;;;;;;;;5039945;28;20217;-71
2022/12/09 09:47:55;;;;;;;21.20;13.15;;;;;;;;;;5039753;28;20381;-71
2022/12/09 09:50:25;;;;;;;20.52;13.23;;;;;;;;;;5039960;28;20198;-61
2022/12/09 09:52:53;;;;;;;24.90;13.55;;;;;;;;;;5039524;28;20197;-61
2022/12/09 09:55:23;;;;;;;20.65;13.10;;;;;;;;;;5039653;28;20387;-61
2022/12/09 09:57:53;;;;;;;24.02;14.90;;;;;;;;;;5038861;28;20214;-61
2022/12/09 10:00:22;;;;;;;23.75;13.35;;;;;;;;;;5019819;28;20198;-61
2022/12/09 10:02:56;;;;;;;32.67;14.00;;;;;;;;;;5019850;28;20556;-61
2022/12/09 10:05:24;;;;;;;23.98;14.40;;;;;;;;;;5019733;28;20207;-61
2022/12/09 10:07:52;;;;;;;28.60;14.40;;;;;;;;;;5019419;28;20198;-60
2022/12/09 10:10:26;;;;;;;20.58;13.15;;;;;;;;;;5019599;28;20546;-61
2022/12/09 10:13:00;;;;;;;23.58;13.38;;;;;;;;;;5019427;28;20198;-61
2022/12/09 10:15:29;;;;;;;31.88;15.20;;;;;;;;;;5019453;28;20516;-61
2022/12/09 10:18:03;;;;;;;22.48;13.10;;;;;;;;;;5018824;28;20242;-61
2022/12/09 10:20:31;;;;;;;21.58;13.48;;;;;;;;;;5019465;28;20430;-61
2022/12/09 10:22:59;;;;;;;19.95;13.32;;;;;;;;;;5017519;28;20210;-59
2022/12/09 10:25:26;;;;;;;22.92;14.82;;;;;;;;;;5030522;28;20214;-59
2022/12/09 10:27:56;;;;;;;20.73;14.40;;;;;;;;;;5032891;28;20221;-58
2022/12/09 10:30:23;;;;;;;22.67;14.43;;;;;;;;;;5033133;28;20220;-58
2022/12/09 10:32:51;;;;;;;24.17;13.52;;;;;;;;;;5033113;28;20217;-57
2022/12/09 10:35:19;;;;;;;27.58;14.90;;;;;;;;;;5032895;28;20276;-57
2022/12/09 10:37:46;;;;;;;23.77;14.43;;;;;;;;;;5033090;27;20210;-58
2022/12/09 10:40:19;;;;;;;28.77;14.10;;;;;;;;;;5033309;28;20533;-57
2022/12/09 10:45:31;;;;;;;22.52;14.32;;;;;;;;;;5033391;28;20208;-58
2022/12/09 10:47:59;;;;;;;24.33;13.10;;;;;;;;;;5022053;28;20253;-59
2022/12/09 10:50:28;;;;;;;22.85;14.30;;;;;;;;;;5013739;28;20221;-59
2022/12/09 10:52:54;;;;;;;20.20;13.45;;;;;;;;;;5013464;28;20211;-57
2022/12/09 10:55:23;;;;;;;19.77;13.10;;;;;;;;;;5013266;28;20548;-58
2022/12/09 10:57:49;;;;;;;19.63;13.82;;;;;;;;;;5014532;28;20508;-57
2022/12/09 11:00:20;;;;;;;17.75;12.90;;;;;;;;;;5033049;28;20414;-58
2022/12/09 11:02:50;;;;;;;22.75;14.60;;;;;;;;;;5032847;28;20210;-57
2022/12/09 11:05:25;;;;;;;22.65;14.85;;;;;;;;;;5032443;28;20670;-58
2022/12/09 11:07:52;;;;;;;22.25;15.00;;;;;;;;;;5032928;28;20297;-58
2022/12/09 11:10:20;;;;;;;27.77;17.20;;;;;;;;;;5032856;28;20209;-58
2022/12/09 11:12:46;;;;;;;27.15;17.38;;;;;;;;;;5033149;28;20210;-58
2022/12/09 11:15:24;;;;;;;27.33;16.15;;;;;;;;;;5033119;28;20418;-58
2022/12/09 11:17:55;;;;;;;26.42;14.82;;;;;;;;;;5032868;28;20218;-58
2022/12/09 11:20:22;;;;;;;23.98;15.48;;;;;;;;;;5035949;28;20217;-58
2022/12/09 11:22:58;;;;;;;22.27;15.68;;;;;;;;;;5036292;28;20231;-58
2022/12/09 11:25:25;;;;;;;24.42;14.75;;;;;;;;;;5036711;28;20212;-58
2022/12/09 11:27:53;;;;;;;21.30;14.88;;;;;;;;;;5036557;28;20238;-58
2022/12/09 11:30:20;;;;;;;27.65;16.75;;;;;;;;;;5036746;28;20209;-58
2022/12/09 11:32:55;;;;;;;30.27;16.60;;;;;;;;;;5036438;28;20405;-58
2022/12/09 11:35:25;;;;;;;23.48;14.57;;;;;;;;;;5036681;28;20216;-58
2022/12/09 11:37:53;;;;;;;28.23;15.07;;;;;;;;;;5036563;28;20209;-58
2022/12/09 11:40:19;;;;;;;19.63;14.10;;;;;;;;;;5036578;28;20210;-58
2022/12/09 11:42:49;;;;;;;21.15;14.80;;;;;;;;;;5036343;28;20382;-58
2022/12/09 11:45:17;;;;;;;23.88;13.85;;;;;;;;;;5036018;28;20216;-58
2022/12/09 11:47:45;;;;;;;21.77;14.93;;;;;;;;;;5035813;28;20209;-58
2022/12/09 11:50:15;;;;;;;23.48;14.88;;;;;;;;;;5035976;28;20206;-59
2022/12/09 11:52:41;;;;;;;22.73;13.65;;;;;;;;;;5035895;28;20210;-58
2022/12/09 11:55:13;;;;;;;24.45;14.20;;;;;;;;;;5035938;28;20220;-57
2022/12/09 11:57:42;;;;;;;21.85;14.60;;;;;;;;;;5035637;28;20214;-58
2022/12/09 12:00:16;;;;;;;26.20;16.85;;;;;;;;;;5035840;28;20247;-58
2022/12/09 12:02:44;;;;;;;21.63;15.38;;;;;;;;;;5035731;28;20282;-58
2022/12/09 12:05:17;;;;;;;25.70;16.90;;;;;;;;;;5035463;27;20210;-58
2022/12/09 12:07:46;;;;;;;23.83;14.50;;;;;;;;;;5035890;28;20217;-58
2022/12/09 12:10:17;;;;;;;26.50;15.43;;;;;;;;;;5035849;28;20206;-58
2022/12/09 12:12:46;;;;;;;23.92;15.20;;;;;;;;;;5035867;28;20198;-58
2022/12/09 12:15:16;;;;;;;28.42;16.67;;;;;;;;;;5035904;28;20218;-57
2022/12/09 12:17:43;;;;;;;19.85;14.63;;;;;;;;;;5035673;28;20214;-57
2022/12/09 12:20:11;;;;;;;25.45;16.30;;;;;;;;;;5035525;28;20230;-58
2022/12/09 12:22:46;;;;;;;25.10;16.00;;;;;;;;;;5035519;28;20210;-57
2022/12/09 12:25:23;;;;;;;22.23;15.07;;;;;;;;;;5035409;28;20209;-58
2022/12/09 12:28:04;;;;;;;25.00;16.75;;;;;;;;;;5035388;28;20226;-58
2022/12/09 12:30:34;;;;;;;24.98;16.10;;;;;;;;;;5035800;28;20218;-58
2022/12/09 12:33:05;;;;;;;26.63;15.73;;;;;;;;;;5035206;28;20217;-59
2022/12/09 12:35:37;;;;;;;25.80;16.13;;;;;;;;;;5035173;28;20412;-58
2022/12/09 12:38:06;;;;;;;21.83;14.63;;;;;;;;;;5035376;28;20205;-58
2022/12/09 12:40:38;;;;;;;26.60;15.52;;;;;;;;;;5035289;28;20240;-58
2022/12/09 12:48:45;;;;;;;22.85;16.02;;;;;;;;;;5035434;28;20208;-57
2022/12/09 12:51:17;;;;;;;19.90;15.55;;;;;;;;;;5035318;28;20210;-58
2022/12/09 12:53:47;;;;;;;25.50;15.70;;;;;;;;;;5035128;28;20208;-58
2022/12/09 12:56:16;;;;;;;25.25;16.38;;;;;;;;;;5035016;28;20217;-58
2022/12/09 12:58:48;;;;;;;23.20;15.32;;;;;;;;;;5035144;28;20226;-58
2022/12/09 13:01:16;;;;;;;27.23;16.90;;;;;;;;;;5035200;28;20225;-58
2022/12/09 13:03:47;;;;;;;22.85;15.40;;;;;;;;;;5035066;28;20202;-59
2022/12/09 13:06:15;;;;;;;21.42;14.57;;;;;;;;;;5035165;28;20267;-58
2022/12/09 13:08:45;;;;;;;24.92;15.98;;;;;;;;;;5034911;28;20205;-59
2022/12/09 13:11:15;;;;;;;24.50;14.57;;;;;;;;;;5035118;28;20216;-58
2022/12/09 13:13:45;;;;;;;29.42;15.82;;;;;;;;;;5034769;28;20543;-58
2022/12/09 13:16:15;;;;;;;25.15;15.68;;;;;;;;;;5034797;28;20395;-58
2022/12/09 13:18:42;;;;;;;19.88;13.95;;;;;;;;;;5034334;28;20225;-57
2022/12/09 13:21:09;;;;;;;24.40;14.93;;;;;;;;;;5034654;28;20252;-57
2022/12/09 13:23:45;;;;;;;24.95;15.60;;;;;;;;;;5034331;28;20220;-58
2022/12/09 13:26:17;;;;;;;23.35;15.63;;;;;;;;;;5034157;28;20217;-58
2022/12/09 13:28:48;;;;;;;30.58;17.85;;;;;;;;;;5034125;28;20222;-58
2022/12/09 13:31:16;;;;;;;23.02;15.88;;;;;;;;;;5034099;28;20210;-58
2022/12/09 13:33:50;;;;;;;24.08;15.23;;;;;;;;;;5034396;28;20236;-58
2022/12/09 13:36:19;;;;;;;22.63;15.55;;;;;;;;;;5033324;28;20210;-58
2022/12/09 13:38:45;;;;;;;25.52;15.85;;;;;;;;;;5034061;28;20296;-60
2022/12/09 13:42:51;;;;;;;26.17;16.95;;;;;;;;;;5034319;28;20409;-59
2022/12/09 13:44:25;;;;;;;25.55;16.23;;;;;;;;;;5033737;28;20231;-60
2022/12/09 13:46:51;;;;;;;26.05;16.58;;;;;;;;;;5034417;28;20533;-60
2022/12/09 13:49:18;;;;;;;31.20;19.17;;;;;;;;;;5034463;28;20266;-60
2022/12/09 13:51:45;;;;;;;30.67;17.45;;;;;;;;;;5034438;28;20210;-60
2022/12/09 13:54:14;;;;;;;30.15;17.13;;;;;;;;;;5033960;28;20250;-60
2022/12/09 13:56:40;;;;;;;28.55;16.98;;;;;;;;;;5034058;28;20543;-60
2022/12/09 13:59:29;;;;;;;26.75;16.52;;;;;;;;;;5033956;28;20330;-60
2022/12/09 14:01:57;;;;;;;23.70;16.80;;;;;;;;;;5034510;28;20210;-60
2022/12/09 14:04:26;;;;;;;29.05;16.65;;;;;;;;;;5034087;28;20517;-60
2022/12/09 14:06:55;;;;;;;28.60;17.90;;;;;;;;;;5034350;28;20217;-60
2022/12/09 14:09:26;;;;;;;24.65;15.52;;;;;;;;;;5034144;28;20399;-60
2022/12/09 14:11:53;;;;;;;24.73;16.88;;;;;;;;;;5034225;28;20218;-60
2022/12/09 14:14:38;;;;;;;26.20;17.88;;;;;;;;;;5033725;28;20220;-60
2022/12/09 14:17:17;;;;;;;25.67;17.65;;;;;;;;;;5033696;28;20209;-58
2022/12/09 14:19:44;;;;;;;25.65;18.08;;;;;;;;;;5033545;28;20229;-60
2022/12/09 14:22:29;;;;;;;29.73;18.92;;;;;;;;;;5039450;28;20378;-60
2022/12/09 14:24:56;;;;;;;31.55;18.95;;;;;;;;;;5039163;28;20204;-60
2022/12/09 14:27:24;;;;;;;33.20;20.38;;;;;;;;;;5039036;28;20232;-60
2022/12/09 14:29:52;;;;;;;27.95;19.88;;;;;;;;;;5039440;28;20198;-60
2022/12/09 14:32:36;;;;;;;31.75;19.67;;;;;;;;;;5039408;28;20253;-60
2022/12/09 14:35:20;;;;;;;38.67;19.30;;;;;;;;;;5039226;28;20197;-60
2022/12/09 14:38:10;;;;;;;30.13;19.25;;;;;;;;;;5039027;28;20248;-60
2022/12/09 14:40:54;;;;;;;31.50;19.65;;;;;;;;;;5039404;28;20218;-60
2022/12/09 14:43:30;;;;;;;32.95;19.25;;;;;;;;;;5039086;28;20198;-60